NEODyS-2

Near Earth Objects - Dynamic Site
NEODyS ∴ Observatories ∴ Site 691 ∴ Obs & residuals
Contact »
691  ▹ 
OBSERVATIONS AND RESIDUALS

691-Steward Observatory, Kitt Peak-Spacewatch

Detections | Residuals | Detections & Residuals

[1-200] [201-400] [401-600] [601-800] [801-1000] [1001-1200] [1201-1400] [1401-1600] [1601-1800] [1801-2000] [2001-2200] [2201-2400] [2401-2600] [2601-2800] [2801-3000] [3001-3200] [3201-3400] [3401-3600] [3601-3800] [3801-4000] [4001-4200] [4201-4400] [4401-4600] [4601-4800] [4801-5000] [5001-5200] [5201-5400] [5401-5600] [5601-5800] [5801-6000] [6001-6200] [6201-6400] [6401-6600] [6601-6800] [6801-7000] [7001-7200] [7201-7400] [7401-7600] [7601-7800] [7801-8000] [8001-8200] [8201-8400] [8401-8600] [8601-8800] [8801-9000] [9001-9200] [9201-9400] [9401-9600] [9601-9800] [9801-10000] [10001-10200] [10201-10400] [10401-10600] [10601-10800] [10801-11000] [11001-11200] [11201-11400] [11401-11600] [11601-11800] [11801-12000] [12001-12200] [12201-12400] [12401-12600] [12601-12800] [12801-13000] [13001-13200] [13201-13400] [13401-13600] [13601-13800] [13801-14000] [14001-14200] [14201-14400] [14401-14600] [14601-14800] [14801-15000] [15001-15200] [15201-15400] [15401-15600] [15601-15800] [15801-16000] [16001-16200] [16201-16400] [16401-16600] [16601-16800] [16801-17000] [17001-17200] [17201-17400] [17401-17600] [17601-17800] [17801-18000] [18001-18200] [18201-18400] [18401-18600] [18601-18800] [18801-19000] [19001-19200] [19201-19400] [19401-19600] [19601-19800] [19801-20000] [20001-20200] [20201-20400] [20401-20600] [20601-20800] [20801-21000] [21001-21200] [21201-21400] [21401-21600] [21601-21800] [21801-22000] [22001-22200] [22201-22400] [22401-22600] [22601-22800] [22801-23000] [23001-23200] [23201-23400] [23401-23600] [23601-23800] [23801-24000] [24001-24200] [24201-24400] [24401-24600] [24601-24800] [24801-25000] [25001-25200] [25201-25400] [25401-25600] [25601-25800] [25801-26000] [26001-26200] [26201-26400] [26401-26600] [26601-26800] [26801-27000] [27001-27200] [27201-27400] [27401-27600] [27601-27800] [27801-28000] [28001-28200] [28201-28400] [28401-28600] [28601-28800] [28801-29000] [29001-29200] [29201-29400] [29401-29600] [29601-29800] [29801-30000] [30001-30200] [30201-30400] [30401-30600] [30601-30800] [30801-31000] [31001-31200] [31201-31400] [31401-31600] [31601-31800] [31801-32000] [32001-32200] [32201-32400] [32401-32600] [32601-32800] [32801-33000] [33001-33200] [33201-33400] [33401-33600] [33601-33800] [33801-34000] [34001-34200] [34201-34400] [34401-34600] [34601-34800] [34801-35000] [35001-35200] [35201-35400] [35401-35600] [35601-35800] [35801-36000] [36001-36200] [36201-36400] [36401-36600] [36601-36800] [36801-37000] [37001-37200] [37201-37400] [37401-37600] [37601-37800] [37801-38000] [38001-38200] [38201-38400] [38401-38600] [38601-38800] [38801-39000] [39001-39200] [39201-39400] [39401-39600] [39601-39800] [39801-40000] [40001-40200] [40201-40400] [40401-40600] [40601-40800] [40801-41000] [41001-41200] [41201-41400] [41401-41600] [41601-41800] [41801-42000] [42001-42200] [42201-42400] [42401-42600] [42601-42800] [42801-43000] [43001-43200] [43201-43400] [43401-43600] [43601-43800] [43801-44000] [44001-44200] [44201-44400] [44401-44600] [44601-44800] [44801-45000] [45001-45200] [45201-45400] [45401-45600] [45601-45800] [45801-46000] [46001-46200] [46201-46400] [46401-46600] [46601-46800] [46801-47000] [47001-47200] [47201-47400] [47401-47600] [47601-47800] [47801-48000] [48001-48200] [48201-48400] [48401-48600] [48601-48800] [48801-49000] [49001-49200] [49201-49400] [49401-49600] [49601-49800] [49801-50000] [50001-50200] [50201-50400] [50401-50600] [50601-50741]

Designation T Tech N Date Right Ascension Declination Apparent Magnitude Star Catalog Site code χ Used A Used M
yr-mo-day precision hr:min:sec precision rms F bias residual deg min sec precision rms F bias residual mag/col rms residual
2002HF8 O C 2009-03-28.29202 1.000E-05 13:47:59.890 1.500E-01 0.500 F 0.144 -0.405 -06° 20' 18.50" 1.000E-01 0.500 F 0.013 0.090 20.8 V 0.70 -0.07 o 691 0.83 Yes Yes
2003UN12 O C 2009-03-28.29449 1.000E-05 13:55:46.920 1.500E-01 0.500 F 0.149 -0.059 -06° 13' 14.60" 1.000E-01 0.500 F 0.057 -0.020 20.2 V 0.70 -0.31 o 691 0.13 Yes Yes
2002XG84 O C H 2009-03-28.32135 1.000E-05 14:02:18.590 1.500E-01 0.500 F 0.253 -0.076 -11° 02' 33.30" 1.000E-01 0.500 F 0.064 -0.534 o 691 1.08 Yes No
2002XG84 O C H 2009-03-28.33905 1.000E-05 14:02:17.170 1.500E-01 0.500 F 0.253 0.118 -11° 02' 28.30" 1.000E-01 0.500 F 0.064 -1.097 o 691 2.21 Yes No
2007BF72 O C H 2009-03-28.36818 1.000E-05 14:33:11.100 1.500E-01 0.500 F 0.210 -2.147 -10° 27' 45.80" 1.000E-01 0.500 F 0.018 -0.005 20.7 V 0.70 -0.55 o 691 4.26 No Yes
2007BF72 O C H 2009-03-28.38587 1.000E-05 14:33:10.230 1.500E-01 0.500 F 0.210 -0.750 -10° 27' 43.00" 1.000E-01 0.500 F 0.018 -0.128 21.1 V 0.70 -0.15 o 691 1.53 Yes Yes
2007BF72 O C H 2009-03-28.40356 1.000E-05 14:33:09.240 1.500E-01 0.500 F 0.210 -1.096 -10° 27' 40.10" 1.000E-01 0.500 F 0.018 -0.177 21.4 V 0.70 0.15 o 691 2.24 Yes Yes
2007HF44 O C H 2009-03-28.42252 1.000E-05 14:51:43.110 1.500E-01 0.500 F 0.238 0.082 -10° 21' 08.10" 1.000E-01 0.500 F 0.121 -0.385 21.0 V 0.70 -0.52 o 691 0.79 Yes Yes
2002LY45 O C H 2009-03-28.42499 1.000E-05 15:00:16.810 1.500E-01 0.500 F 0.302 0.578 -10° 54' 19.40" 1.000E-01 0.500 F 0.165 -0.763 o 691 1.92 Yes No
2007HF44 O C H 2009-03-28.44023 1.000E-05 14:51:42.050 1.500E-01 0.500 F 0.238 0.254 -10° 21' 01.50" 1.000E-01 0.500 F 0.121 -0.635 o 691 1.37 Yes No
2002LY45 O C H 2009-03-28.44269 1.000E-05 15:00:13.580 1.500E-01 0.500 F 0.302 0.382 -10° 53' 59.40" 1.000E-01 0.500 F 0.165 -0.431 o 691 1.16 Yes No
2007HF44 O C H 2009-03-28.45792 1.000E-05 14:51:40.970 1.500E-01 0.500 F 0.238 0.109 -10° 20' 54.50" 1.000E-01 0.500 F 0.121 -0.497 o 691 1.02 Yes No
2002LY45 O C t 2009-03-28.46040 1.000E-05 15:00:10.320 1.500E-01 0.500 F 0.302 -0.238 -10° 53' 39.90" 1.000E-01 0.500 F 0.165 -0.633 19.4 V 0.70 0.32 o 691 1.36 Yes Yes
2009FF19 O C t 2009-03-29.19867 1.000E-05 12:29:46.640 1.500E-01 0.500 F 0.189 -0.413 -01° 26' 09.90" 1.000E-01 0.500 F 0.198 -0.628 20.7 V 0.70 -0.17 o 691 1.51 Yes Yes
2009FF19 O C t 2009-03-29.21380 1.000E-05 12:29:44.390 1.500E-01 0.500 F 0.189 0.121 -01° 25' 55.40" 1.000E-01 0.500 F 0.198 -0.741 20.7 V 0.70 -0.17 o 691 1.51 Yes Yes
2009FF19 O C t 2009-03-29.22892 1.000E-05 12:29:42.100 1.500E-01 0.500 F 0.189 0.122 -01° 25' 40.40" 1.000E-01 0.500 F 0.198 -0.350 20.6 V 0.70 -0.28 o 691 0.75 Yes Yes
1998FH74 O C H 2009-03-29.36145 1.000E-05 14:25:08.550 1.500E-01 0.500 F 0.149 -0.209 -07° 53' 57.10" 1.000E-01 0.500 F -0.015 -0.598 21.7 V 0.70 -0.28 o 691 1.27 Yes Yes
2009FE O C t 2009-03-29.36392 1.000E-05 14:32:31.500 1.500E-01 0.500 F 0.238 0.242 -08° 21' 00.10" 1.000E-01 0.500 F 0.048 -0.646 19.0 V 0.70 0.11 o 691 1.40 Yes Yes
2009FE O C t 2009-03-29.38160 1.000E-05 14:32:38.420 1.500E-01 0.500 F 0.238 1.088 -08° 21' 35.40" 1.000E-01 0.500 F 0.048 -0.464 o 691 2.40 Yes No
1998FH74 O C H 2009-03-29.39682 1.000E-05 14:25:06.860 1.500E-01 0.500 F 0.149 0.280 -07° 53' 43.60" 1.000E-01 0.500 F -0.015 -0.092 o 691 0.59 Yes No
2009FO28 O C 2009-03-31.19696 1.000E-05 13:02:42.590 1.500E-01 0.500 F 0.245 -0.608 +00° 24' 12.20" 1.000E-01 0.500 F 0.327 -0.084 17.7 V 0.70 -0.01 o 691 1.26 Yes Yes
2009FO28 O C 2009-03-31.21465 1.000E-05 13:02:46.810 1.500E-01 0.500 F 0.245 -0.638 +00° 26' 47.60" 1.000E-01 0.500 F 0.327 -0.280 17.8 V 0.70 0.09 o 691 1.43 Yes Yes
2009FO28 O C 2009-03-31.23235 1.000E-05 13:02:51.020 1.500E-01 0.500 F 0.245 -0.564 +00° 29' 23.60" 1.000E-01 0.500 F 0.327 -0.253 17.8 V 0.70 0.09 o 691 1.27 Yes Yes
Albert O C 2009-03-31.25494 1.000E-05 13:40:56.990 1.500E-01 0.500 F 0.203 -0.594 -05° 16' 18.10" 1.000E-01 0.500 F 0.048 -0.192 20.3 V 0.70 0.24 o 691 1.25 Yes Yes
2002HF8 O C 2009-03-31.25494 1.000E-05 13:45:14.970 1.500E-01 0.500 F 0.166 -0.639 -06° 06' 56.10" 1.000E-01 0.500 F -0.034 0.126 21.4 V 0.70 0.67 o 691 1.31 Yes Yes
2003UN12 O C 2009-03-31.25740 1.000E-05 13:53:14.940 1.500E-01 0.500 F 0.149 -0.070 -06° 07' 24.60" 1.000E-01 0.500 F 0.057 0.390 20.1 V 0.70 -0.26 o 691 0.80 Yes Yes
Albert O C 2009-03-31.27262 1.000E-05 13:40:56.090 1.500E-01 0.500 F 0.203 -0.771 -05° 16' 09.50" 1.000E-01 0.500 F 0.048 -0.017 20.2 V 0.70 0.14 o 691 1.54 Yes Yes
2002HF8 O C 2009-03-31.27262 1.000E-05 13:45:13.860 1.500E-01 0.500 F 0.166 -1.171 -06° 06' 51.30" 1.000E-01 0.500 F -0.034 0.006 20.8 V 0.70 0.07 o 691 2.35 Yes Yes
2003UN12 O C 2009-03-31.27509 1.000E-05 13:53:13.910 1.500E-01 0.500 F 0.149 -0.319 -06° 07' 22.60" 1.000E-01 0.500 F 0.057 0.242 20.4 V 0.70 0.04 o 691 0.81 Yes Yes
Albert O C 2009-03-31.29032 1.000E-05 13:40:55.360 1.500E-01 0.500 F 0.203 1.632 -05° 16' 01.60" 1.000E-01 0.500 F 0.048 -0.558 19.5 V 0.70 -0.56 o 691 3.45 No Yes
2002HF8 O C 2009-03-31.29032 1.000E-05 13:45:12.830 1.500E-01 0.500 F 0.166 -0.441 -06° 06' 46.30" 1.000E-01 0.500 F -0.034 0.072 21.1 V 0.70 0.37 o 691 0.90 Yes Yes
2003UN12 O C 2009-03-31.29279 1.000E-05 13:53:12.900 1.500E-01 0.500 F 0.149 -0.198 -06° 07' 21.20" 1.000E-01 0.500 F 0.057 -0.516 21.4 V 0.70 1.04 o 691 1.11 Yes Yes
2009EE1 O C H 2009-03-31.34297 1.000E-05 14:12:15.610 1.500E-01 0.500 F 0.229 -0.653 -14° 36' 13.50" 1.000E-01 0.500 F -0.011 -0.360 21.7 V 0.70 -0.22 o 691 1.89 Yes Yes
2009EE1 O C H 2009-03-31.36068 1.000E-05 14:12:19.070 1.500E-01 0.500 F 0.229 0.420 -14° 36' 39.10" 1.000E-01 0.500 F -0.011 -0.306 21.8 V 0.70 -0.12 o 691 1.46 Yes Yes
2008US4 O C t 2009-03-31.42656 1.000E-05 14:58:46.030 1.500E-01 0.500 F 0.230 0.430 -12° 47' 24.90" 1.000E-01 0.500 F 0.132 -0.412 22.0 V 0.70 0.06 o 691 1.43 Yes Yes
2009FR O C t 2009-03-31.44181 1.000E-05 14:53:06.110 1.500E-01 0.500 F 0.209 -0.440 -12° 43' 20.20" 1.000E-01 0.500 F 0.156 0.161 22.0 V 0.70 0.01 o 691 1.25 Yes Yes
2000QK25 O C 2009-04-01.19687 1.000E-05 12:46:26.350 1.500E-01 0.500 F -0.009 -0.672 +04° 09' 47.00" 1.000E-01 0.500 F 0.041 -0.382 o 691 1.55 Yes No
2000QK25 O C 2009-04-01.21455 1.000E-05 12:46:25.040 1.500E-01 0.500 F -0.009 -1.020 +04° 09' 57.20" 1.000E-01 0.500 F 0.041 0.050 o 691 2.05 Yes No
2000QK25 O C 2009-04-01.23223 1.000E-05 12:46:23.800 1.500E-01 0.500 F -0.009 -0.279 +04° 10' 07.30" 1.000E-01 0.500 F 0.041 0.388 o 691 0.96 Yes No
2007BF72 O C H 2009-04-01.37966 1.000E-05 14:29:23.860 1.500E-01 0.500 F 0.210 -0.682 -10° 15' 16.70" 1.000E-01 0.500 F 0.018 0.103 o 691 1.39 Yes No
2007BF72 O C H 2009-04-01.39738 1.000E-05 14:29:22.700 1.500E-01 0.500 F 0.210 -0.205 -10° 15' 13.70" 1.000E-01 0.500 F 0.018 -0.556 o 691 1.19 Yes No
2007HF44 O C H 2009-04-01.42705 1.000E-05 14:47:34.260 1.500E-01 0.500 F 0.200 -0.055 -09° 54' 17.80" 1.000E-01 0.500 F 0.043 0.288 21.2 V 0.70 -0.22 o 691 0.59 Yes Yes
2002LY45 O C 2009-04-01.42705 1.000E-05 14:48:15.380 1.500E-01 0.500 F 0.180 -0.242 -09° 39' 27.90" 1.000E-01 0.500 F 0.051 0.214 o 691 0.65 Yes No
2009FE O C 2009-04-01.42952 1.000E-05 14:55:38.170 1.500E-01 0.500 F 0.305 -2.886 -10° 12' 27.00" 1.000E-01 0.500 F 0.182 1.136 o 691 6.08 No No
2007HF44 O C H 2009-04-01.44476 1.000E-05 14:47:33.010 1.500E-01 0.500 F 0.200 -0.146 -09° 54' 10.60" 1.000E-01 0.500 F 0.043 0.062 21.0 V 0.70 -0.42 o 691 0.32 Yes Yes
2002LY45 O C 2009-04-01.44476 1.000E-05 14:48:12.110 1.500E-01 0.500 F 0.180 -0.058 -09° 39' 08.00" 1.000E-01 0.500 F 0.051 0.063 o 691 0.17 Yes No
2009FE O C 2009-04-01.44723 1.000E-05 14:55:46.890 1.500E-01 0.500 F 0.305 0.007 -10° 13' 09.50" 1.000E-01 0.500 F 0.182 0.348 o 691 0.70 Yes No
2007HF44 O C H 2009-04-01.46246 1.000E-05 14:47:31.820 1.500E-01 0.500 F 0.200 0.622 -09° 54' 04.30" 1.000E-01 0.500 F 0.043 -1.078 21.3 V 0.70 -0.12 o 691 2.50 Yes Yes
2002LY45 O C 2009-04-01.46246 1.000E-05 14:48:08.810 1.500E-01 0.500 F 0.180 -0.372 -09° 38' 47.80" 1.000E-01 0.500 F 0.051 0.205 o 691 0.85 Yes No
2009FE O C 2009-04-01.46493 1.000E-05 14:55:55.420 1.500E-01 0.500 F 0.305 -0.154 -10° 13' 51.10" 1.000E-01 0.500 F 0.182 0.364 o 691 0.80 Yes No
2009FV4 O C t 2009-04-02.14216 1.000E-05 10:55:07.080 1.500E-01 0.500 F 0.055 0.281 +13° 00' 40.20" 1.000E-01 0.500 F 0.127 -0.645 o 691 1.42 Yes No
2009FV4 O C t 2009-04-02.16097 1.000E-05 10:55:05.140 1.500E-01 0.500 F 0.055 -0.029 +13° 01' 19.20" 1.000E-01 0.500 F 0.127 -1.090 21.0 V 0.70 0.02 o 691 2.20 Yes Yes
Albert O C 2009-04-02.24506 1.000E-05 13:39:17.840 1.500E-01 0.500 F 0.254 -0.476 -05° 00' 19.30" 1.000E-01 0.500 F -0.019 -0.233 19.7 V 0.70 -0.30 o 691 1.06 Yes Yes
2002HF8 O C H 2009-04-02.24506 1.000E-05 13:43:14.980 1.500E-01 0.500 F 0.166 -0.544 -05° 57' 25.10" 1.000E-01 0.500 F -0.034 0.444 21.0 V 0.70 0.37 o 691 1.41 Yes Yes
2003UN12 O C 2009-04-02.24753 1.000E-05 13:51:22.100 1.500E-01 0.500 F 0.171 -0.622 -06° 03' 09.50" 1.000E-01 0.500 F 0.040 0.282 20.5 V 0.70 0.23 o 691 1.38 Yes Yes
Albert O C 2009-04-02.26623 1.000E-05 13:39:16.740 1.500E-01 0.500 F 0.254 -0.507 -05° 00' 08.90" 1.000E-01 0.500 F -0.019 -0.096 20.0 V 0.70 0.00 o 691 1.03 Yes Yes
2002HF8 O C H 2009-04-02.26623 1.000E-05 13:43:13.660 1.500E-01 0.500 F 0.166 0.098 -05° 57' 19.00" 1.000E-01 0.500 F -0.034 0.400 20.5 V 0.70 -0.13 o 691 0.83 Yes Yes
2003UN12 O C 2009-04-02.26870 1.000E-05 13:51:20.790 1.500E-01 0.500 F 0.171 -0.736 -06° 03' 06.60" 1.000E-01 0.500 F 0.040 0.456 20.0 V 0.70 -0.27 o 691 1.75 Yes Yes
Albert O C 2009-04-02.28392 1.000E-05 13:39:15.810 1.500E-01 0.500 F 0.254 -0.667 -04° 59' 59.80" 1.000E-01 0.500 F -0.019 0.423 20.4 V 0.70 0.40 o 691 1.58 Yes Yes
2002HF8 O C H 2009-04-02.28392 1.000E-05 13:43:12.530 1.500E-01 0.500 F 0.166 0.287 -05° 57' 14.70" 1.000E-01 0.500 F -0.034 -0.445 20.7 V 0.70 0.07 o 691 1.06 Yes Yes
2003UN12 O C 2009-04-02.28640 1.000E-05 13:51:19.710 1.500E-01 0.500 F 0.171 -0.535 -06° 03' 04.90" 1.000E-01 0.500 F 0.040 -0.135 20.2 V 0.70 -0.06 o 691 1.11 Yes Yes
1999ML O C 2009-04-02.41942 1.000E-05 14:46:39.280 1.500E-01 0.500 F 0.055 -0.477 -16° 11' 06.40" 1.000E-01 0.500 F 0.023 -0.057 20.2 V 0.70 -0.48 o 691 0.95 Yes Yes
1996FR3 O C H 2009-04-02.42948 1.000E-05 14:55:04.450 1.500E-01 0.500 F -0.037 -0.012 -18° 11' 47.50" 1.000E-01 0.500 F -0.008 0.154 20.2 V 0.70 -0.05 o 691 0.31 Yes Yes
1999ML O C 2009-04-02.43714 1.000E-05 14:46:38.720 1.500E-01 0.500 F 0.055 -0.108 -16° 11' 02.50" 1.000E-01 0.500 F 0.023 0.019 20.2 V 0.70 -0.48 o 691 0.21 Yes Yes
1999ML O C 2009-04-02.45488 1.000E-05 14:46:38.120 1.500E-01 0.500 F 0.055 -0.315 -16° 10' 58.40" 1.000E-01 0.500 F 0.023 0.267 20.1 V 0.70 -0.58 o 691 0.82 Yes Yes
1996FR3 O C H 2009-04-02.46493 1.000E-05 14:55:01.450 1.500E-01 0.500 F -0.037 0.738 -18° 11' 39.60" 1.000E-01 0.500 F -0.008 -0.344 o 691 1.63 Yes No
2007BF72 O C H 2009-04-05.38652 1.000E-05 14:24:47.910 1.500E-01 0.500 F 0.143 0.242 -10° 00' 18.30" 1.000E-01 0.500 F -0.094 -0.968 20.7 V 0.70 -0.20 o 691 2.01 Yes Yes
2007BF72 O C H 2009-04-05.40426 1.000E-05 14:24:46.400 1.500E-01 0.500 F 0.143 -1.311 -10° 00' 11.90" 1.000E-01 0.500 F -0.094 1.104 20.7 V 0.70 -0.20 o 691 3.39 No Yes
2009HC O C 2009-04-17.23164 1.000E-05 14:21:51.210 1.500E-01 0.500 F 0.082 -0.096 -05° 01' 02.70" 1.000E-01 0.500 F 0.045 0.149 18.3 V 0.70 0.55 o 691 0.37 Yes Yes
2009HC O C 2009-04-17.24928 1.000E-05 14:21:47.640 1.500E-01 0.500 F 0.082 0.022 -04° 58' 56.90" 1.000E-01 0.500 F 0.045 -0.094 18.2 V 0.70 0.45 o 691 0.20 Yes Yes
2009HC O C 2009-04-17.26690 1.000E-05 14:21:43.940 1.500E-01 0.500 F 0.082 -0.228 -04° 56' 50.90" 1.000E-01 0.500 F 0.045 0.045 18.0 V 0.70 0.25 o 691 0.48 Yes Yes
2006TK O C H 2009-04-18.14286 1.000E-05 12:43:49.960 1.500E-01 0.500 F 0.185 -0.321 +01° 08' 05.90" 1.000E-01 0.500 F 0.210 0.520 21.0 V 0.70 0.44 o 691 1.31 Yes Yes
2006TK O C H 2009-04-18.16962 1.000E-05 12:43:47.170 1.500E-01 0.500 F 0.185 0.318 +01° 08' 10.40" 1.000E-01 0.500 F 0.210 -0.589 o 691 1.44 Yes No
2009HR2 O C 2009-04-18.22121 1.000E-05 13:36:09.040 1.500E-01 0.500 F 0.243 0.042 -10° 19' 37.50" 1.000E-01 0.500 F 0.094 -1.325 19.9 V 0.70 -0.18 o 691 2.89 Yes Yes
2004JR O C H 2009-04-18.23617 1.000E-05 13:57:29.250 1.500E-01 0.500 F 0.221 -0.134 -11° 28' 32.40" 1.000E-01 0.500 F 0.089 -0.312 o 691 0.70 Yes No
2009HR2 O C 2009-04-18.23889 1.000E-05 13:36:04.700 1.500E-01 0.500 F 0.243 -0.530 -10° 21' 36.90" 1.000E-01 0.500 F 0.094 -0.544 20.7 V 0.70 0.61 o 691 1.69 Yes Yes
2004JR O C H 2009-04-18.25383 1.000E-05 13:57:27.390 1.500E-01 0.500 F 0.221 -0.630 -11° 28' 03.10" 1.000E-01 0.500 F 0.089 -0.944 21.1 V 0.70 0.21 o 691 2.35 Yes Yes
2009HR2 O C 2009-04-18.25655 1.000E-05 13:36:00.450 1.500E-01 0.500 F 0.243 0.382 -10° 23' 34.70" 1.000E-01 0.500 F 0.094 1.076 20.5 V 0.70 0.40 o 691 2.49 Yes Yes
2004JR O C H 2009-04-18.27155 1.000E-05 13:57:25.530 1.500E-01 0.500 F 0.221 -0.998 -11° 27' 32.10" 1.000E-01 0.500 F 0.089 -0.001 o 691 2.06 Yes No
2007PA8 O C H 2009-04-18.34399 1.000E-05 15:18:21.010 1.500E-01 0.500 F 0.086 -0.669 -15° 32' 44.50" 1.000E-01 0.500 F 0.058 0.799 o 691 2.09 Yes No
2000TG2 O C H 2009-04-18.35897 1.000E-05 15:39:20.350 1.500E-01 0.500 F 0.097 -0.150 -13° 11' 20.80" 1.000E-01 0.500 F 0.097 0.711 o 691 1.46 Yes No
2007PA8 O C H 2009-04-18.36167 1.000E-05 15:18:20.180 1.500E-01 0.500 F 0.086 0.581 -15° 32' 41.50" 1.000E-01 0.500 F 0.058 -0.012 o 691 1.16 Yes No
2000TG2 O C H 2009-04-18.37663 1.000E-05 15:39:19.310 1.500E-01 0.500 F 0.097 1.115 -13° 11' 06.60" 1.000E-01 0.500 F 0.097 0.327 o 691 2.35 Yes No
2002LJ3 O C 2009-04-18.45827 1.000E-05 16:09:58.100 1.500E-01 0.500 F 0.085 -0.285 -05° 15' 30.40" 1.000E-01 0.500 F 0.112 -0.644 19.9 V 0.70 -0.36 o 691 1.41 Yes Yes
2002LJ3 O C 2009-04-18.47591 1.000E-05 16:09:57.340 1.500E-01 0.500 F 0.085 -0.240 -05° 15' 20.30" 1.000E-01 0.500 F 0.112 0.411 20.2 V 0.70 -0.06 o 691 0.95 Yes Yes
2002LJ3 O C 2009-04-18.49356 1.000E-05 16:09:56.580 1.500E-01 0.500 F 0.085 -0.219 -05° 15' 11.60" 1.000E-01 0.500 F 0.112 0.050 20.2 V 0.70 -0.06 o 691 0.45 Yes Yes
2009HU2 O C 2009-04-19.13168 1.000E-05 12:49:46.210 1.500E-01 0.500 F 0.042 -0.382 +03° 32' 02.50" 1.000E-01 0.500 F 0.052 -0.088 20.7 V 0.70 -0.14 o 691 0.79 Yes Yes
2009HU2 O C 2009-04-19.14541 1.000E-05 12:49:45.180 1.500E-01 0.500 F 0.042 -0.546 +03° 32' 16.00" 1.000E-01 0.500 F 0.052 -0.359 20.4 V 0.70 -0.44 o 691 1.32 Yes Yes
2009HU2 O C 2009-04-19.15915 1.000E-05 12:49:44.170 1.500E-01 0.500 F 0.042 -0.365 +03° 32' 30.10" 1.000E-01 0.500 F 0.052 -0.034 20.6 V 0.70 -0.24 o 691 0.74 Yes Yes
2009HV2 O C 2009-04-19.17928 1.000E-05 12:57:41.330 1.500E-01 0.500 F 0.254 -0.546 +01° 11' 01.00" 1.000E-01 0.500 F 0.309 -0.695 19.3 V 0.70 -0.49 o 691 1.78 Yes Yes
2009HV2 O C 2009-04-19.19250 1.000E-05 12:57:38.710 1.500E-01 0.500 F 0.254 0.002 +01° 11' 05.20" 1.000E-01 0.500 F 0.309 0.060 20.0 V 0.70 0.21 o 691 0.12 Yes Yes
2009HV2 O C 2009-04-19.20572 1.000E-05 12:57:36.090 1.500E-01 0.500 F 0.254 0.664 +01° 11' 07.50" 1.000E-01 0.500 F 0.309 -1.079 19.6 V 0.70 -0.19 o 691 2.55 Yes Yes
2000TG2 O C H 2009-04-19.38013 1.000E-05 15:38:17.420 1.500E-01 0.500 F 0.097 0.026 -12° 57' 11.60" 1.000E-01 0.500 F 0.097 -0.179 o 691 0.36 Yes No
2003WO7 O C H 2009-04-19.38960 1.000E-05 15:55:12.640 1.500E-01 0.500 F 0.186 -0.142 -10° 05' 58.50" 1.000E-01 0.500 F 0.145 0.068 21.4 V 0.70 -0.21 o 691 0.32 Yes Yes
2003WO7 O C H 2009-04-19.40733 1.000E-05 15:55:11.980 1.500E-01 0.500 F 0.186 -0.143 -10° 05' 55.30" 1.000E-01 0.500 F 0.145 -0.095 21.5 V 0.70 -0.11 o 691 0.35 Yes Yes
2003WO7 O C H 2009-04-19.42502 1.000E-05 15:55:11.330 1.500E-01 0.500 F 0.186 -0.013 -10° 05' 51.30" 1.000E-01 0.500 F 0.145 0.535 21.9 V 0.70 0.29 o 691 1.08 Yes Yes
2001QQ142 O C 2009-04-20.32436 1.000E-05 15:41:43.300 1.500E-01 0.500 F 0.168 -0.059 -06° 01' 51.90" 1.000E-01 0.500 F 0.084 0.066 20.2 V 0.70 -0.01 o 691 0.18 Yes Yes
2001QQ142 O C 2009-04-20.34200 1.000E-05 15:41:41.680 1.500E-01 0.500 F 0.168 -0.375 -06° 01' 48.30" 1.000E-01 0.500 F 0.084 -0.229 20.1 V 0.70 -0.11 o 691 0.88 Yes Yes
2001QQ142 O C 2009-04-20.35964 1.000E-05 15:41:40.080 1.500E-01 0.500 F 0.168 -0.353 -06° 01' 44.30" 1.000E-01 0.500 F 0.084 -0.133 20.1 V 0.70 -0.11 o 691 0.76 Yes Yes
2005SA71 O C 2009-04-21.21895 1.000E-05 14:31:58.790 1.500E-01 0.500 F 0.103 -0.293 -04° 22' 35.30" 1.000E-01 0.500 F 0.095 -0.045 19.6 V 0.70 0.14 o 691 0.60 Yes Yes
2005SA71 O C 2009-04-21.23661 1.000E-05 14:31:56.510 1.500E-01 0.500 F 0.103 -0.353 -04° 22' 44.20" 1.000E-01 0.500 F 0.095 -0.276 19.7 V 0.70 0.24 o 691 0.90 Yes Yes
2005SA71 O C 2009-04-21.25427 1.000E-05 14:31:54.270 1.500E-01 0.500 F 0.103 0.281 -04° 22' 54.40" 1.000E-01 0.500 F 0.095 -1.810 19.4 V 0.70 -0.06 o 691 3.65 No Yes
2009HV2 O C 2009-04-22.14299 1.000E-05 12:47:41.680 1.500E-01 0.500 F 0.204 -0.359 +01° 22' 48.20" 1.000E-01 0.500 F 0.132 0.073 o 691 0.74 Yes No
2009HV2 O C 2009-04-22.16715 1.000E-05 12:47:36.300 1.500E-01 0.500 F 0.204 -0.014 +01° 22' 53.20" 1.000E-01 0.500 F 0.132 -0.192 o 691 0.39 Yes No
2009HV2 O C 2009-04-22.19131 1.000E-05 12:47:30.850 1.500E-01 0.500 F 0.204 -0.276 +01° 22' 58.70" 1.000E-01 0.500 F 0.132 0.067 o 691 0.57 Yes No
2007HF44 O C H 2009-04-22.22121 1.000E-05 14:18:37.810 1.500E-01 0.500 F 0.132 -0.238 -07° 17' 18.60" 1.000E-01 0.500 F 0.000 0.365 20.6 V 0.70 -0.33 o 691 0.88 Yes Yes
2007HF44 O C H 2009-04-22.23888 1.000E-05 14:18:36.110 1.500E-01 0.500 F 0.132 -0.647 -07° 17' 10.80" 1.000E-01 0.500 F 0.000 0.369 21.0 V 0.70 0.07 o 691 1.49 Yes Yes
1999TN12 O C 2009-04-22.27310 1.000E-05 15:25:08.690 1.500E-01 0.500 F -0.003 0.234 -05° 15' 59.30" 1.000E-01 0.500 F 0.240 -0.288 o 691 0.74 Yes No
1999TN12 O C 2009-04-22.29078 1.000E-05 15:25:07.490 1.500E-01 0.500 F -0.003 -0.616 -05° 15' 34.00" 1.000E-01 0.500 F 0.240 -0.057 o 691 1.24 Yes No
1999TN12 O C 2009-04-22.30843 1.000E-05 15:25:06.350 1.500E-01 0.500 F -0.003 -0.558 -05° 15' 08.60" 1.000E-01 0.500 F 0.240 0.307 o 691 1.28 Yes No
2007PA8 O C H 2009-04-22.36083 1.000E-05 15:14:52.910 1.500E-01 0.500 F 0.146 0.289 -15° 18' 00.70" 1.000E-01 0.500 F 0.027 -0.790 o 691 1.68 Yes No
2002LJ3 O C 2009-04-22.43811 1.000E-05 16:06:56.270 1.500E-01 0.500 F -0.024 -0.469 -04° 41' 18.20" 1.000E-01 0.500 F 0.140 0.379 o 691 1.21 Yes No
2002LJ3 O C 2009-04-22.45579 1.000E-05 16:06:55.290 1.500E-01 0.500 F -0.024 -0.521 -04° 41' 09.00" 1.000E-01 0.500 F 0.140 0.388 o 691 1.30 Yes No
2002LJ3 O C 2009-04-22.47347 1.000E-05 16:06:54.340 1.500E-01 0.500 F -0.024 -0.151 -04° 41' 00.30" 1.000E-01 0.500 F 0.140 -0.112 o 691 0.38 Yes No
2009HU2 O C H 2009-04-23.13423 1.000E-05 12:45:06.680 1.500E-01 0.500 F -0.009 0.028 +04° 36' 27.10" 1.000E-01 0.500 F 0.041 -0.476 o 691 0.96 Yes No
2009HU2 O C H 2009-04-23.15793 1.000E-05 12:45:05.050 1.500E-01 0.500 F -0.009 0.323 +04° 36' 49.00" 1.000E-01 0.500 F 0.041 -0.616 o 691 1.40 Yes No
2009HU2 O C H 2009-04-23.18165 1.000E-05 12:45:03.360 1.500E-01 0.500 F -0.009 -0.178 +04° 37' 11.70" 1.000E-01 0.500 F 0.041 0.047 21.4 V 0.70 0.45 o 691 0.37 Yes Yes
2005SA71 O C 2009-04-23.21705 1.000E-05 14:27:42.400 1.500E-01 0.500 F 0.077 -0.205 -04° 39' 24.60" 1.000E-01 0.500 F 0.047 0.020 19.7 V 0.70 0.34 o 691 0.42 Yes Yes
2005SA71 O C 2009-04-23.23473 1.000E-05 14:27:40.020 1.500E-01 0.500 F 0.077 -0.007 -04° 39' 34.30" 1.000E-01 0.500 F 0.047 -0.368 19.5 V 0.70 0.14 o 691 0.74 Yes Yes
2005SA71 O C 2009-04-23.25241 1.000E-05 14:27:37.670 1.500E-01 0.500 F 0.077 0.732 -04° 39' 44.50" 1.000E-01 0.500 F 0.047 -1.261 19.0 V 0.70 -0.36 o 691 2.93 Yes Yes
2003WO7 O C H 2009-04-23.37574 1.000E-05 15:52:37.250 1.500E-01 0.500 F 0.201 -0.003 -09° 53' 10.80" 1.000E-01 0.500 F 0.157 0.084 o 691 0.17 Yes No
2003WO7 O C H 2009-04-23.39344 1.000E-05 15:52:36.450 1.500E-01 0.500 F 0.201 0.302 -09° 53' 07.90" 1.000E-01 0.500 F 0.157 -0.468 21.3 V 0.70 -0.14 o 691 1.13 Yes Yes
2003WO7 O C H 2009-04-23.41117 1.000E-05 15:52:35.620 1.500E-01 0.500 F 0.201 0.190 -09° 53' 03.80" 1.000E-01 0.500 F 0.157 0.161 21.3 V 0.70 -0.14 o 691 0.50 Yes Yes
2009HY51 O C 2009-04-23.44084 1.000E-05 15:39:54.170 1.500E-01 0.500 F 0.040 0.231 -01° 50' 56.80" 1.000E-01 0.500 F 0.107 0.165 20.8 V 0.70 -0.19 o 691 0.58 Yes Yes
2009HY51 O C 2009-04-23.45850 1.000E-05 15:39:52.160 1.500E-01 0.500 F 0.040 -0.027 -01° 51' 15.70" 1.000E-01 0.500 F 0.107 0.249 20.8 V 0.70 -0.19 o 691 0.51 Yes Yes
2009HY51 O C 2009-04-23.47617 1.000E-05 15:39:50.180 1.500E-01 0.500 F 0.040 0.090 -01° 51' 35.00" 1.000E-01 0.500 F 0.107 -0.058 20.9 V 0.70 -0.09 o 691 0.22 Yes Yes
2009HV2 O C 2009-04-24.13250 1.000E-05 12:40:20.740 1.500E-01 0.500 F 0.187 -0.512 +01° 29' 20.20" 1.000E-01 0.500 F 0.170 -0.016 o 691 1.03 Yes No
2009HV2 O C 2009-04-24.15384 1.000E-05 12:40:15.650 1.500E-01 0.500 F 0.187 -0.119 +01° 29' 24.10" 1.000E-01 0.500 F 0.170 0.040 o 691 0.25 Yes No
2009HV2 O C 2009-04-24.17519 1.000E-05 12:40:10.500 1.500E-01 0.500 F 0.187 -0.220 +01° 29' 27.60" 1.000E-01 0.500 F 0.170 -0.284 o 691 0.73 Yes No
2007HF44 O C H 2009-04-24.19819 1.000E-05 14:15:36.850 1.500E-01 0.500 F 0.149 0.905 -07° 02' 51.70" 1.000E-01 0.500 F 0.073 -0.672 o 691 2.26 Yes No
2007HF44 O C H 2009-04-24.21588 1.000E-05 14:15:35.130 1.500E-01 0.500 F 0.149 0.046 -07° 02' 43.50" 1.000E-01 0.500 F 0.073 -0.055 20.8 V 0.70 -0.12 o 691 0.14 Yes Yes
2007HF44 O C H 2009-04-24.23355 1.000E-05 14:15:33.510 1.500E-01 0.500 F 0.149 0.704 -07° 02' 35.40" 1.000E-01 0.500 F 0.073 0.462 21.2 V 0.70 0.28 o 691 1.69 Yes Yes
2009HD82 O C 2009-04-24.32305 1.000E-05 15:53:34.430 1.500E-01 0.500 F 0.193 -0.229 -07° 54' 37.50" 1.000E-01 0.500 F 0.114 -0.048 o 691 0.47 Yes No
2009HD82 O C 2009-04-24.34072 1.000E-05 15:53:34.220 1.500E-01 0.500 F 0.193 -0.602 -07° 53' 59.70" 1.000E-01 0.500 F 0.114 0.418 o 691 1.47 Yes No
2009HD82 O C 2009-04-24.35839 1.000E-05 15:53:34.030 1.500E-01 0.500 F 0.193 -0.577 -07° 53' 22.80" 1.000E-01 0.500 F 0.114 -0.099 o 691 1.18 Yes No
2008US4 O C H 2009-04-26.20477 1.000E-05 14:01:26.340 1.500E-01 0.500 F 0.218 0.646 -14° 13' 16.60" 1.000E-01 0.500 F 0.109 1.644 o 691 3.51 No No
1999ML O C H 2009-04-26.21217 1.000E-05 14:25:43.270 1.500E-01 0.500 F 0.182 -0.270 -13° 55' 07.20" 1.000E-01 0.500 F 0.108 0.286 o 691 0.78 Yes No
2008US4 O C H 2009-04-26.22242 1.000E-05 14:01:24.310 1.500E-01 0.500 F 0.218 1.103 -14° 13' 17.80" 1.000E-01 0.500 F 0.109 1.739 o 691 4.11 No No
1999ML O C H 2009-04-26.22983 1.000E-05 14:25:41.950 1.500E-01 0.500 F 0.182 -0.595 -13° 54' 59.60" 1.000E-01 0.500 F 0.108 -0.098 20.1 V 0.70 0.58 o 691 1.20 Yes Yes
1996FR3 O C H 2009-04-26.23746 1.000E-05 14:18:32.340 1.500E-01 0.500 F 0.262 0.091 -16° 05' 57.90" 1.000E-01 0.500 F 0.084 -0.581 o 691 1.18 Yes No
2008US4 O C H 2009-04-26.24008 1.000E-05 14:01:22.100 1.500E-01 0.500 F 0.218 -1.000 -14° 13' 20.10" 1.000E-01 0.500 F 0.109 0.707 21.7 V 0.70 -0.16 o 691 2.91 Yes Yes
1999ML O C H 2009-04-26.24748 1.000E-05 14:25:40.680 1.500E-01 0.500 F 0.182 -0.153 -13° 54' 51.60" 1.000E-01 0.500 F 0.108 -0.098 20.0 V 0.70 0.48 o 691 0.36 Yes Yes
1996FR3 O C H 2009-04-26.25513 1.000E-05 14:18:30.600 1.500E-01 0.500 F 0.262 -1.164 -16° 05' 51.50" 1.000E-01 0.500 F 0.084 -0.671 o 691 2.69 Yes No
2009HU2 O C H 2009-04-27.14586 1.000E-05 12:40:48.910 1.500E-01 0.500 F 0.132 0.168 +05° 35' 42.00" 1.000E-01 0.500 F 0.075 -0.308 o 691 0.71 Yes No
2009HU2 O C H 2009-04-27.16724 1.000E-05 12:40:47.530 1.500E-01 0.500 F 0.132 -0.145 +05° 36' 00.50" 1.000E-01 0.500 F 0.075 0.137 o 691 0.40 Yes No
2009HU2 O C H 2009-04-27.18864 1.000E-05 12:40:46.160 1.500E-01 0.500 F 0.132 -0.244 +05° 36' 18.70" 1.000E-01 0.500 F 0.075 0.286 20.8 V 0.70 -0.25 o 691 0.76 Yes Yes
2005SA71 O C 2009-04-27.21352 1.000E-05 14:18:34.650 1.500E-01 0.500 F 0.075 -0.429 -05° 16' 42.00" 1.000E-01 0.500 F 0.031 0.096 19.9 V 0.70 0.68 o 691 0.88 Yes Yes
2005SA71 O C 2009-04-27.23113 1.000E-05 14:18:32.090 1.500E-01 0.500 F 0.075 -0.117 -05° 16' 52.60" 1.000E-01 0.500 F 0.031 0.075 19.6 V 0.70 0.38 o 691 0.28 Yes Yes
2005SA71 O C 2009-04-27.24889 1.000E-05 14:18:29.470 1.500E-01 0.500 F 0.075 -0.292 -05° 17' 03.60" 1.000E-01 0.500 F 0.031 -0.262 19.6 V 0.70 0.38 o 691 0.79 Yes Yes
2009HL21 O C 2009-04-29.14004 1.000E-05 14:11:20.340 1.500E-01 0.500 F 0.104 -0.528 -03° 11' 25.70" 1.000E-01 0.500 F 0.096 0.100 18.7 V 0.70 0.04 o 691 1.12 Yes Yes
1998FH74 O C H 2009-04-29.14266 1.000E-05 13:56:49.700 1.500E-01 0.500 F 0.196 0.348 -04° 35' 59.40" 1.000E-01 0.500 F 0.122 -0.194 o 691 0.80 Yes No
2005SA71 O C 2009-04-29.14759 1.000E-05 14:13:55.610 1.500E-01 0.500 F 0.175 -0.400 -05° 36' 31.50" 1.000E-01 0.500 F 0.058 0.037 20.1 V 0.70 0.90 o 691 0.81 Yes Yes
2009HL21 O C 2009-04-29.15768 1.000E-05 14:11:22.160 1.500E-01 0.500 F 0.104 0.013 -03° 12' 03.50" 1.000E-01 0.500 F 0.096 -0.159 19.0 V 0.70 0.34 o 691 0.33 Yes Yes
1998FH74 O C H 2009-04-29.16029 1.000E-05 13:56:48.660 1.500E-01 0.500 F 0.196 0.046 -04° 35' 53.50" 1.000E-01 0.500 F 0.122 -0.782 o 691 1.57 Yes No
2005SA71 O C 2009-04-29.16522 1.000E-05 14:13:53.010 1.500E-01 0.500 F 0.175 0.161 -05° 36' 42.50" 1.000E-01 0.500 F 0.058 0.308 19.6 V 0.70 0.40 o 691 0.70 Yes Yes
2009HL21 O C 2009-04-29.17530 1.000E-05 14:11:23.890 1.500E-01 0.500 F 0.104 -0.103 -03° 12' 40.70" 1.000E-01 0.500 F 0.096 0.055 19.0 V 0.70 0.34 o 691 0.25 Yes Yes
1998FH74 O C H 2009-04-29.17792 1.000E-05 13:56:47.630 1.500E-01 0.500 F 0.196 -0.088 -04° 35' 47.00" 1.000E-01 0.500 F 0.122 -0.772 21.5 V 0.70 -0.21 o 691 1.55 Yes Yes
2005SA71 O C 2009-04-29.18284 1.000E-05 14:13:50.340 1.500E-01 0.500 F 0.175 -0.224 -05° 36' 54.00" 1.000E-01 0.500 F 0.058 0.068 19.5 V 0.70 0.30 o 691 0.47 Yes Yes
2009HY51 O C H 2009-04-29.35937 1.000E-05 15:28:55.490 1.500E-01 0.500 F 0.026 -0.225 -03° 40' 16.70" 1.000E-01 0.500 F 0.216 -0.374 21.0 V 0.70 0.12 o 691 0.89 Yes Yes
2009JK1 O C 2009-04-29.36429 1.000E-05 15:43:21.520 1.500E-01 0.500 F 0.060 -0.132 -02° 34' 50.80" 1.000E-01 0.500 F 0.113 -0.007 19.9 V 0.70 -0.24 o 691 0.27 Yes Yes
2009HD82 O C 2009-04-29.37431 1.000E-05 15:52:51.080 1.500E-01 0.500 F 0.268 -0.240 -04° 25' 13.70" 1.000E-01 0.500 F 0.151 -0.139 19.8 V 0.70 -0.17 o 691 0.56 Yes Yes
2009JK1 O C 2009-04-29.38194 1.000E-05 15:43:21.190 1.500E-01 0.500 F 0.060 -0.221 -02° 34' 26.00" 1.000E-01 0.500 F 0.113 -0.048 19.8 V 0.70 -0.34 o 691 0.45 Yes Yes
2009HD82 O C 2009-04-29.39196 1.000E-05 15:52:50.530 1.500E-01 0.500 F 0.268 -0.400 -04° 24' 22.20" 1.000E-01 0.500 F 0.151 -0.025 19.7 V 0.70 -0.26 o 691 0.81 Yes Yes
2009HY51 O C H 2009-04-29.39466 1.000E-05 15:28:51.210 1.500E-01 0.500 F 0.026 -0.240 -03° 40' 56.50" 1.000E-01 0.500 F 0.216 -0.164 20.9 V 0.70 0.02 o 691 0.59 Yes Yes
2009JK1 O C 2009-04-29.39960 1.000E-05 15:43:20.860 1.500E-01 0.500 F 0.060 -0.318 -02° 34' 01.30" 1.000E-01 0.500 F 0.113 -0.218 19.6 V 0.70 -0.54 o 691 0.78 Yes Yes
2009HD82 O C 2009-04-29.40961 1.000E-05 15:52:49.980 1.500E-01 0.500 F 0.268 -0.595 -04° 23' 31.00" 1.000E-01 0.500 F 0.151 -0.300 19.6 V 0.70 -0.36 o 691 1.34 Yes Yes
1998UT18 O C t 2009-04-30.22859 1.000E-05 15:33:01.610 1.500E-01 0.500 F -0.032 0.533 -00° 37' 56.40" 1.000E-01 0.500 F 0.115 -0.230 18.5 V 0.70 -0.14 o 691 1.16 Yes Yes
1998UT18 O C H 2009-04-30.24384 1.000E-05 15:32:58.990 1.500E-01 0.500 F -0.032 0.053 -00° 38' 15.30" 1.000E-01 0.500 F 0.115 -0.569 o 691 1.14 Yes No
1998UT18 O C H 2009-04-30.25909 1.000E-05 15:32:56.400 1.500E-01 0.500 F -0.032 0.129 -00° 38' 33.20" 1.000E-01 0.500 F 0.115 0.093 o 691 0.32 Yes No
2009HY67 O C t 2009-04-30.31997 1.000E-05 15:48:08.930 1.500E-01 0.500 F 0.142 0.430 -13° 40' 04.80" 1.000E-01 0.500 F 0.154 -0.373 21.1 V 0.70 0.34 o 691 1.23 Yes Yes
2009HF88 O C 2009-04-30.32515 1.000E-05 15:37:58.630 1.500E-01 0.500 F -0.064 -0.038 -14° 55' 13.50" 1.000E-01 0.500 F 0.142 -0.063 21.0 V 0.70 0.30 o 691 0.15 Yes Yes
2009HY67 O C H 2009-04-30.33764 1.000E-05 15:48:05.590 1.500E-01 0.500 F 0.142 -0.491 -13° 38' 05.30" 1.000E-01 0.500 F 0.154 0.194 o 691 1.16 Yes No
2009HF88 O C 2009-04-30.34282 1.000E-05 15:37:57.310 1.500E-01 0.500 F -0.064 -0.080 -14° 54' 42.30" 1.000E-01 0.500 F 0.142 -0.121 20.5 V 0.70 -0.20 o 691 0.30 Yes Yes
2009HF88 O C 2009-04-30.36049 1.000E-05 15:37:56.010 1.500E-01 0.500 F -0.064 0.177 -14° 54' 10.80" 1.000E-01 0.500 F 0.142 0.094 20.4 V 0.70 -0.30 o 691 0.41 Yes Yes
2002LJ3 O C 2009-04-30.37089 1.000E-05 15:58:37.590 1.500E-01 0.500 F 0.080 0.008 -03° 33' 20.90" 1.000E-01 0.500 F 0.236 -0.108 19.7 V 0.70 -0.12 o 691 0.22 Yes Yes
2002LJ3 O C 2009-04-30.38854 1.000E-05 15:58:36.190 1.500E-01 0.500 F 0.080 -0.404 -03° 33' 11.00" 1.000E-01 0.500 F 0.236 0.923 21.1 V 0.70 1.28 o 691 2.02 Yes Yes
2002LJ3 O C 2009-04-30.40617 1.000E-05 15:58:34.840 1.500E-01 0.500 F 0.080 -0.093 -03° 33' 03.00" 1.000E-01 0.500 F 0.236 0.058 19.9 V 0.70 0.08 o 691 0.22 Yes Yes
2000DN8 O C H 2009-04-30.43510 1.000E-05 21:17:44.080 1.500E-01 0.500 F 0.007 0.082 +02° 53' 50.20" 1.000E-01 0.500 F 0.208 -0.583 20.0 V 0.70 0.02 o 691 1.18 Yes Yes
2000DN8 O C H 2009-04-30.46029 1.000E-05 21:17:46.530 1.500E-01 0.500 F 0.007 0.233 +02° 53' 55.20" 1.000E-01 0.500 F 0.208 -0.505 o 691 1.11 Yes No
2009DL46 O C t 2009-04-30.46791 1.000E-05 20:42:00.400 1.500E-01 0.500 F -0.027 0.749 -02° 24' 12.70" 1.000E-01 0.500 F 0.166 -1.528 20.2 V 0.70 -0.54 o 691 3.39 No Yes
2009DL46 O C t 2009-04-30.47062 1.000E-05 20:42:01.120 1.500E-01 0.500 F -0.027 0.207 -02° 24' 20.80" 1.000E-01 0.500 F 0.166 -0.486 19.7 V 0.70 -1.04 o 691 1.06 Yes Yes
1998FH74 O C H 2009-05-01.15843 1.000E-05 13:54:54.970 1.500E-01 0.500 F 0.197 0.380 -04° 23' 43.30" 1.000E-01 0.500 F 0.122 -0.472 21.3 V 0.70 -0.45 o 691 1.21 Yes Yes
1998FH74 O C H 2009-05-01.17607 1.000E-05 13:54:53.920 1.500E-01 0.500 F 0.197 -0.192 -04° 23' 36.50" 1.000E-01 0.500 F 0.122 -0.035 21.2 V 0.70 -0.55 o 691 0.39 Yes Yes
2000TG2 O C H 2009-05-01.26559 1.000E-05 15:23:38.990 1.500E-01 0.500 F 0.164 0.914 -10° 03' 01.20" 1.000E-01 0.500 F 0.104 -1.096 o 691 2.88 Yes No
2000TG2 O C H 2009-05-01.28324 1.000E-05 15:23:37.420 1.500E-01 0.500 F 0.164 0.132 -10° 02' 45.90" 1.000E-01 0.500 F 0.104 -1.634 o 691 3.27 No No
2003WO7 O C 2009-05-01.32077 1.000E-05 15:45:42.960 1.500E-01 0.500 F 0.201 -0.239 -09° 27' 20.90" 1.000E-01 0.500 F 0.109 0.219 20.8 V 0.70 -0.30 o 691 0.66 Yes Yes
2003WO7 O C 2009-05-01.33847 1.000E-05 15:45:41.830 1.500E-01 0.500 F 0.201 -0.337 -09° 27' 17.90" 1.000E-01 0.500 F 0.109 -0.155 20.9 V 0.70 -0.20 o 691 0.75 Yes Yes
2009HY67 O C t 2009-05-01.34859 1.000E-05 15:45:12.100 1.500E-01 0.500 F 0.146 1.248 -11° 46' 36.70" 1.000E-01 0.500 F 0.170 -1.435 21.2 V 0.70 0.43 o 691 3.49 No Yes
2003WO7 O C 2009-05-01.35616 1.000E-05 15:45:40.700 1.500E-01 0.500 F 0.201 -0.425 -09° 27' 14.20" 1.000E-01 0.500 F 0.109 0.158 20.9 V 0.70 -0.20 o 691 0.93 Yes Yes
2009HY67 O C t 2009-05-01.36626 1.000E-05 15:45:08.900 1.500E-01 0.500 F 0.146 0.631 -11° 44' 40.90" 1.000E-01 0.500 F 0.170 -0.404 20.5 V 0.70 -0.27 o 691 1.72 Yes Yes
2009JK1 O C 2009-05-01.38677 1.000E-05 15:42:52.220 1.500E-01 0.500 F 0.118 -0.501 -01° 46' 41.20" 1.000E-01 0.500 F 0.174 0.170 20.3 V 0.70 0.25 o 691 1.07 Yes Yes
2009JK1 O C 2009-05-01.40441 1.000E-05 15:42:51.890 1.500E-01 0.500 F 0.118 0.465 -01° 46' 16.30" 1.000E-01 0.500 F 0.174 -0.522 19.7 V 0.70 -0.35 o 691 1.41 Yes Yes
2009JK1 O C 2009-05-01.42205 1.000E-05 15:42:51.430 1.500E-01 0.500 F 0.118 -0.563 -01° 45' 50.00" 1.000E-01 0.500 F 0.174 0.175 19.9 V 0.70 -0.15 o 691 1.19 Yes Yes
Almeria O C H 2009-05-01.44873 1.000E-05 20:57:15.990 1.500E-01 0.500 F 0.023 0.202 -00° 05' 30.10" 1.000E-01 0.500 F 0.150 -0.003 21.2 V 0.70 -0.48 o 691 0.40 Yes Yes
Almeria O C H 2009-05-01.46133 1.000E-05 20:57:16.860 1.500E-01 0.500 F 0.023 0.634 -00° 05' 26.60" 1.000E-01 0.500 F 0.150 -0.813 o 691 2.06 Yes No
2005SA71 O C t 2009-05-04.17258 1.000E-05 14:01:19.220 1.500E-01 0.500 F 0.299 0.224 -06° 33' 27.50" 1.000E-01 0.500 F 0.052 -0.472 o 691 1.05 Yes No
2005SA71 O C t 2009-05-04.19022 1.000E-05 14:01:16.480 1.500E-01 0.500 F 0.299 0.933 -06° 33' 39.90" 1.000E-01 0.500 F 0.052 0.011 o 691 1.88 Yes No
2002LJ3 O C H 2009-05-04.36034 1.000E-05 15:53:24.080 1.500E-01 0.500 F 0.184 -0.154 -03° 00' 44.40" 1.000E-01 0.500 F 0.196 -0.082 o 691 0.35 Yes No
2002LJ3 O C H 2009-05-04.39569 1.000E-05 15:53:20.990 1.500E-01 0.500 F 0.184 -0.150 -03° 00' 27.50" 1.000E-01 0.500 F 0.196 -0.042 o 691 0.31 Yes No
2000DN8 O C 2009-05-04.44599 1.000E-05 21:24:15.830 1.500E-01 0.500 F -0.057 -0.153 +03° 06' 14.70" 1.000E-01 0.500 F 0.115 -0.079 o 691 0.34 Yes No

[1-200] [201-400] [401-600] [601-800] [801-1000] [1001-1200] [1201-1400] [1401-1600] [1601-1800] [1801-2000] [2001-2200] [2201-2400] [2401-2600] [2601-2800] [2801-3000] [3001-3200] [3201-3400] [3401-3600] [3601-3800] [3801-4000] [4001-4200] [4201-4400] [4401-4600] [4601-4800] [4801-5000] [5001-5200] [5201-5400] [5401-5600] [5601-5800] [5801-6000] [6001-6200] [6201-6400] [6401-6600] [6601-6800] [6801-7000] [7001-7200] [7201-7400] [7401-7600] [7601-7800] [7801-8000] [8001-8200] [8201-8400] [8401-8600] [8601-8800] [8801-9000] [9001-9200] [9201-9400] [9401-9600] [9601-9800] [9801-10000] [10001-10200] [10201-10400] [10401-10600] [10601-10800] [10801-11000] [11001-11200] [11201-11400] [11401-11600] [11601-11800] [11801-12000] [12001-12200] [12201-12400] [12401-12600] [12601-12800] [12801-13000] [13001-13200] [13201-13400] [13401-13600] [13601-13800] [13801-14000] [14001-14200] [14201-14400] [14401-14600] [14601-14800] [14801-15000] [15001-15200] [15201-15400] [15401-15600] [15601-15800] [15801-16000] [16001-16200] [16201-16400] [16401-16600] [16601-16800] [16801-17000] [17001-17200] [17201-17400] [17401-17600] [17601-17800] [17801-18000] [18001-18200] [18201-18400] [18401-18600] [18601-18800] [18801-19000] [19001-19200] [19201-19400] [19401-19600] [19601-19800] [19801-20000] [20001-20200] [20201-20400] [20401-20600] [20601-20800] [20801-21000] [21001-21200] [21201-21400] [21401-21600] [21601-21800] [21801-22000] [22001-22200] [22201-22400] [22401-22600] [22601-22800] [22801-23000] [23001-23200] [23201-23400] [23401-23600] [23601-23800] [23801-24000] [24001-24200] [24201-24400] [24401-24600] [24601-24800] [24801-25000] [25001-25200] [25201-25400] [25401-25600] [25601-25800] [25801-26000] [26001-26200] [26201-26400] [26401-26600] [26601-26800] [26801-27000] [27001-27200] [27201-27400] [27401-27600] [27601-27800] [27801-28000] [28001-28200] [28201-28400] [28401-28600] [28601-28800] [28801-29000] [29001-29200] [29201-29400] [29401-29600] [29601-29800] [29801-30000] [30001-30200] [30201-30400] [30401-30600] [30601-30800] [30801-31000] [31001-31200] [31201-31400] [31401-31600] [31601-31800] [31801-32000] [32001-32200] [32201-32400] [32401-32600] [32601-32800] [32801-33000] [33001-33200] [33201-33400] [33401-33600] [33601-33800] [33801-34000] [34001-34200] [34201-34400] [34401-34600] [34601-34800] [34801-35000] [35001-35200] [35201-35400] [35401-35600] [35601-35800] [35801-36000] [36001-36200] [36201-36400] [36401-36600] [36601-36800] [36801-37000] [37001-37200] [37201-37400] [37401-37600] [37601-37800] [37801-38000] [38001-38200] [38201-38400] [38401-38600] [38601-38800] [38801-39000] [39001-39200] [39201-39400] [39401-39600] [39601-39800] [39801-40000] [40001-40200] [40201-40400] [40401-40600] [40601-40800] [40801-41000] [41001-41200] [41201-41400] [41401-41600] [41601-41800] [41801-42000] [42001-42200] [42201-42400] [42401-42600] [42601-42800] [42801-43000] [43001-43200] [43201-43400] [43401-43600] [43601-43800] [43801-44000] [44001-44200] [44201-44400] [44401-44600] [44601-44800] [44801-45000] [45001-45200] [45201-45400] [45401-45600] [45601-45800] [45801-46000] [46001-46200] [46201-46400] [46401-46600] [46601-46800] [46801-47000] [47001-47200] [47201-47400] [47401-47600] [47601-47800] [47801-48000] [48001-48200] [48201-48400] [48401-48600] [48601-48800] [48801-49000] [49001-49200] [49201-49400] [49401-49600] [49601-49800] [49801-50000] [50001-50200] [50201-50400] [50401-50600] [50601-50741]